createdAt,value
2019-02-26T00:01:00.339Z,99.90
2019-02-26T00:03:30.847Z,99.90
2019-02-26T00:06:01.579Z,99.90
2019-02-26T00:08:31.732Z,99.90
2019-02-26T00:11:01.261Z,99.90
2019-02-26T00:13:31.867Z,99.90
2019-02-26T00:16:05.670Z,99.90
2019-02-26T00:18:31.678Z,99.90
2019-02-26T00:21:01.197Z,99.90
2019-02-26T00:23:31.102Z,99.90
2019-02-26T00:25:59.779Z,99.90
2019-02-26T00:28:28.516Z,99.90
2019-02-26T00:30:59.338Z,99.90
2019-02-26T00:33:28.957Z,99.90
2019-02-26T00:35:58.175Z,99.90
2019-02-26T00:38:26.849Z,99.90
2019-02-26T00:40:57.216Z,99.90
2019-02-26T00:43:27.924Z,99.90
2019-02-26T00:45:58.278Z,99.90
2019-02-26T00:48:26.761Z,99.90
2019-02-26T00:50:56.595Z,99.90
2019-02-26T00:53:26.079Z,99.90
2019-02-26T00:55:58.447Z,99.90
2019-02-26T00:58:26.447Z,99.90
2019-02-26T01:00:55.431Z,99.90
2019-02-26T01:03:24.529Z,99.90
2019-02-26T01:05:53.032Z,99.90
2019-02-26T01:08:22.202Z,99.90
2019-02-26T01:10:50.684Z,99.90
2019-02-26T01:13:20.301Z,99.90
2019-02-26T01:15:49.671Z,99.90
2019-02-26T01:18:20.119Z,99.90
2019-02-26T01:20:52.262Z,99.90
2019-02-26T01:23:21.517Z,99.90
2019-02-26T01:25:49.600Z,99.90
2019-02-26T01:28:20.307Z,99.90
2019-02-26T01:30:48.926Z,99.90
2019-02-26T01:33:19.032Z,99.90
2019-02-26T01:35:47.924Z,99.90
2019-02-26T01:38:18.395Z,99.90
2019-02-26T01:40:49.160Z,99.90
2019-02-26T01:43:17.276Z,99.90
2019-02-26T01:45:46.280Z,99.90
2019-02-26T01:48:18.489Z,99.90
2019-02-26T01:50:46.656Z,99.90
2019-02-26T01:53:16.914Z,99.90
2019-02-26T01:55:46.037Z,99.90
2019-02-26T01:58:16.561Z,99.90
2019-02-26T02:00:45.321Z,99.90
2019-02-26T02:03:14.012Z,99.90
2019-02-26T02:05:43.271Z,99.90
2019-02-26T02:08:13.707Z,99.90
2019-02-26T02:10:43.632Z,99.90
2019-02-26T02:13:12.131Z,99.90
2019-02-26T02:15:42.253Z,99.90
2019-02-26T02:18:11.396Z,99.90
2019-02-26T02:20:40.497Z,99.90
2019-02-26T02:23:09.102Z,99.90
2019-02-26T02:25:38.755Z,99.90
2019-02-26T02:28:08.014Z,99.90
2019-02-26T02:30:39.024Z,99.90
2019-02-26T02:33:07.041Z,99.90
2019-02-26T02:35:35.713Z,99.90
2019-02-26T02:38:04.910Z,99.90
2019-02-26T02:40:33.680Z,99.90
2019-02-26T02:43:04.514Z,99.90
2019-02-26T02:45:32.555Z,99.90
2019-02-26T02:48:03.274Z,99.90
2019-02-26T02:50:32.075Z,99.90
2019-02-26T02:53:02.082Z,99.90
2019-02-26T02:55:31.160Z,99.90
2019-02-26T02:58:00.490Z,99.90
2019-02-26T03:00:31.596Z,99.90
2019-02-26T03:03:00.103Z,99.90
2019-02-26T03:05:31.310Z,99.90
2019-02-26T03:07:58.965Z,99.90
2019-02-26T03:10:30.810Z,99.90
2019-02-26T03:13:00.429Z,99.90
2019-02-26T03:15:30.096Z,99.90
2019-02-26T03:17:58.779Z,99.90
2019-02-26T03:20:30.769Z,99.90
2019-02-26T03:22:58.184Z,99.90
2019-02-26T03:25:29.025Z,99.90
2019-02-26T03:27:57.688Z,99.90
2019-02-26T03:30:32.863Z,99.90
2019-02-26T03:33:00.282Z,99.90
2019-02-26T03:35:27.107Z,99.90
2019-02-26T03:37:58.146Z,99.90
2019-02-26T03:40:27.063Z,99.90
2019-02-26T03:42:57.273Z,99.90
2019-02-26T03:45:25.895Z,99.90
2019-02-26T03:47:55.345Z,99.90
2019-02-26T03:50:26.283Z,99.90
2019-02-26T03:52:53.983Z,99.90
2019-02-26T03:55:22.144Z,99.90
2019-02-26T03:57:53.368Z,99.90
2019-02-26T04:00:20.626Z,99.90
2019-02-26T04:02:51.258Z,99.90
2019-02-26T04:05:18.978Z,99.90
2019-02-26T04:07:49.845Z,99.90
2019-02-26T04:10:17.968Z,99.90
2019-02-26T04:12:48.707Z,99.90
2019-02-26T04:15:16.451Z,99.90
2019-02-26T04:17:44.758Z,99.90
2019-02-26T04:20:13.271Z,99.90
2019-02-26T04:22:43.183Z,99.90
2019-02-26T04:25:35.982Z,99.90
2019-02-26T04:28:15.738Z,99.90
2019-02-26T04:31:13.954Z,99.90
2019-02-26T04:34:27.538Z,99.90
2019-02-26T04:37:46.361Z,99.90
2019-02-26T04:40:36.295Z,99.90
2019-02-26T04:43:52.535Z,99.90
2019-02-26T04:47:06.594Z,99.90
2019-02-26T04:49:38.378Z,99.90
2019-02-26T04:52:05.650Z,99.90
2019-02-26T04:54:36.902Z,99.90
2019-02-26T04:57:04.830Z,99.90
2019-02-26T04:59:34.880Z,99.90
2019-02-26T05:02:03.330Z,99.90
2019-02-26T05:04:33.811Z,99.90
2019-02-26T05:07:04.356Z,99.90
2019-02-26T05:09:33.360Z,99.90
2019-02-26T05:12:01.887Z,99.90
2019-02-26T05:14:30.035Z,99.90
2019-02-26T05:16:58.148Z,99.90
2019-02-26T05:19:26.312Z,99.90
2019-02-26T05:21:56.766Z,99.90
2019-02-26T05:24:26.247Z,99.90
2019-02-26T05:26:54.490Z,99.90
2019-02-26T05:29:22.743Z,99.90
2019-02-26T05:31:51.489Z,99.90
2019-02-26T05:34:20.727Z,99.90
2019-02-26T05:36:49.563Z,99.90
2019-02-26T05:39:20.918Z,99.90
2019-02-26T05:41:47.618Z,99.90
2019-02-26T05:44:15.774Z,99.90
2019-02-26T05:46:43.888Z,99.90
2019-02-26T05:49:14.080Z,99.90
2019-02-26T05:51:41.979Z,99.90
2019-02-26T05:54:14.267Z,99.90
2019-02-26T05:56:41.272Z,99.90
2019-02-26T05:59:12.283Z,99.90
2019-02-26T06:01:40.007Z,99.90
2019-02-26T06:04:10.073Z,99.90
2019-02-26T06:06:38.029Z,99.90
2019-02-26T06:09:07.723Z,99.90
2019-02-26T06:11:38.625Z,99.90
2019-02-26T06:14:09.161Z,99.90
2019-02-26T06:16:36.002Z,99.90
2019-02-26T06:19:08.530Z,99.90
2019-02-26T06:21:39.609Z,99.90
2019-02-26T06:24:07.054Z,99.90
2019-02-26T06:26:36.098Z,99.90
2019-02-26T06:29:05.925Z,99.90
2019-02-26T06:31:34.126Z,99.90
2019-02-26T06:34:05.682Z,99.90
2019-02-26T06:36:32.158Z,99.90
2019-02-26T06:39:01.504Z,99.90
2019-02-26T06:41:30.598Z,99.90
2019-02-26T06:43:58.678Z,99.90
2019-02-26T06:46:28.833Z,99.90
2019-02-26T06:48:56.703Z,99.90
2019-02-26T06:51:26.160Z,99.90
2019-02-26T06:53:56.967Z,99.90
2019-02-26T06:56:25.142Z,99.90
2019-02-26T06:58:53.329Z,99.90
2019-02-26T07:01:21.466Z,99.90
2019-02-26T07:03:49.963Z,99.90
2019-02-26T07:06:20.626Z,99.90
2019-02-26T07:08:48.905Z,99.90
2019-02-26T07:11:17.922Z,99.90
2019-02-26T07:13:46.547Z,99.90
2019-02-26T07:16:14.674Z,99.90
2019-02-26T07:18:43.200Z,99.90
2019-02-26T07:21:11.334Z,99.90
2019-02-26T07:23:40.056Z,99.90
2019-02-26T07:26:08.473Z,99.90
2019-02-26T07:28:36.622Z,99.90
2019-02-26T07:31:07.337Z,99.90
2019-02-26T07:33:37.065Z,99.90
2019-02-26T07:36:05.332Z,99.90
2019-02-26T07:38:40.903Z,99.90
2019-02-26T07:41:04.217Z,99.90
2019-02-26T07:43:36.637Z,99.90
2019-02-26T07:46:03.270Z,99.90
2019-02-26T07:48:33.539Z,99.90
2019-02-26T07:51:01.346Z,99.90
2019-02-26T07:53:29.434Z,99.90
2019-02-26T07:55:58.811Z,99.90
2019-02-26T07:58:27.459Z,99.90
2019-02-26T08:00:55.799Z,99.90
2019-02-26T08:03:24.796Z,99.90
2019-02-26T08:05:54.201Z,99.90
2019-02-26T08:08:22.490Z,99.90
2019-02-26T08:10:51.222Z,99.90
2019-02-26T08:13:21.522Z,99.90
2019-02-26T08:15:49.674Z,99.90
2019-02-26T08:18:17.766Z,99.90
2019-02-26T08:20:45.953Z,99.90
2019-02-26T08:23:14.750Z,99.90
2019-02-26T08:25:44.190Z,99.90
2019-02-26T08:28:13.492Z,99.90
2019-02-26T08:30:44.499Z,99.90
2019-02-26T08:33:12.610Z,99.90
2019-02-26T08:35:40.702Z,99.90
2019-02-26T08:38:09.042Z,99.90
2019-02-26T08:40:37.545Z,99.90
2019-02-26T08:43:05.844Z,99.90
2019-02-26T08:45:34.099Z,99.90
2019-02-26T08:48:02.338Z,99.90
2019-02-26T08:50:32.960Z,99.90
2019-02-26T08:53:00.573Z,99.90
2019-02-26T08:55:28.867Z,99.90
2019-02-26T08:57:59.243Z,99.90
2019-02-26T09:00:27.477Z,99.90
2019-02-26T09:02:56.732Z,99.90
2019-02-26T09:05:26.329Z,99.90
2019-02-26T09:07:55.109Z,99.90
2019-02-26T09:10:23.468Z,99.90
2019-02-26T09:12:52.147Z,99.90
2019-02-26T09:15:20.615Z,99.90
2019-02-26T09:17:48.802Z,99.90
2019-02-26T09:20:17.163Z,99.90
2019-02-26T09:22:48.078Z,99.90
2019-02-26T09:25:16.025Z,99.90
2019-02-26T09:27:44.211Z,99.90
2019-02-26T09:30:16.134Z,99.90
2019-02-26T09:32:44.966Z,99.90
2019-02-26T09:35:16.269Z,99.90
2019-02-26T09:37:45.406Z,99.90
2019-02-26T09:40:17.183Z,99.90
2019-02-26T09:42:47.193Z,99.90
2019-02-26T09:45:17.983Z,99.90
2019-02-26T09:47:47.900Z,99.90
2019-02-26T09:50:17.735Z,99.90
2019-02-26T09:52:47.781Z,99.90
2019-02-26T09:55:17.536Z,99.90
2019-02-26T09:57:45.820Z,99.90
2019-02-26T10:00:19.539Z,97.60
2019-02-26T10:02:49.555Z,96.90
2019-02-26T10:05:18.308Z,96.90
2019-02-26T10:07:46.633Z,96.80
2019-02-26T10:10:16.645Z,96.70
2019-02-26T10:12:45.038Z,96.00
2019-02-26T10:15:14.170Z,95.20
2019-02-26T10:17:43.262Z,93.60
2019-02-26T10:20:14.812Z,93.40
2019-02-26T10:22:42.982Z,92.00
2019-02-26T10:25:12.053Z,91.60
2019-02-26T10:27:41.241Z,91.40
2019-02-26T10:30:14.229Z,92.20
2019-02-26T10:32:44.060Z,91.60
2019-02-26T10:35:16.579Z,91.20
2019-02-26T10:37:52.495Z,91.40
2019-02-26T10:40:20.921Z,90.50
2019-02-26T10:42:49.043Z,90.10
2019-02-26T10:45:18.702Z,89.30
2019-02-26T10:47:48.900Z,89.80
2019-02-26T10:50:19.430Z,90.50
2019-02-26T10:52:48.158Z,89.40
2019-02-26T10:55:17.635Z,87.70
2019-02-26T10:57:47.816Z,85.70
2019-02-26T11:00:22.655Z,85.80
2019-02-26T11:02:54.195Z,83.40
2019-02-26T11:05:26.293Z,81.20
2019-02-26T11:07:55.322Z,80.50
2019-02-26T11:10:25.052Z,80.90
2019-02-26T11:12:54.437Z,80.00
2019-02-26T11:15:26.226Z,77.70
2019-02-26T11:17:55.674Z,77.10
2019-02-26T11:20:27.046Z,77.50
2019-02-26T11:22:53.774Z,77.00
2019-02-26T11:25:24.168Z,75.70
2019-02-26T11:27:52.194Z,74.10
2019-02-26T11:30:23.024Z,75.40
2019-02-26T11:32:56.160Z,73.70
2019-02-26T11:35:22.587Z,74.00
2019-02-26T11:37:53.149Z,74.70
2019-02-26T11:40:23.008Z,72.90
2019-02-26T11:42:52.807Z,71.10
2019-02-26T11:45:21.076Z,71.40
2019-02-26T11:47:49.182Z,72.20
2019-02-26T11:50:17.736Z,72.10
2019-02-26T11:52:45.944Z,72.20
2019-02-26T11:55:15.027Z,71.70
2019-02-26T11:57:45.136Z,69.20
2019-02-26T12:00:24.345Z,70.20
2019-02-26T12:02:47.057Z,69.20
2019-02-26T12:05:15.807Z,68.20
2019-02-26T12:07:46.070Z,69.00
2019-02-26T12:10:14.803Z,68.60
2019-02-26T12:12:43.310Z,68.60
2019-02-26T12:15:12.950Z,68.60
2019-02-26T12:17:46.023Z,67.20
2019-02-26T12:20:15.252Z,67.10
2019-02-26T12:22:45.124Z,66.90
2019-02-26T12:25:15.106Z,66.90
2019-02-26T12:27:45.504Z,67.10
2019-02-26T12:30:18.020Z,67.40
2019-02-26T12:32:47.555Z,65.30
2019-02-26T12:35:17.961Z,64.90
2019-02-26T12:37:47.271Z,64.10
2019-02-26T12:40:19.201Z,63.10
2019-02-26T12:42:46.503Z,63.00
2019-02-26T12:45:14.861Z,61.70
2019-02-26T12:47:43.888Z,62.30
2019-02-26T12:50:14.678Z,62.80
2019-02-26T12:52:44.805Z,61.60
2019-02-26T12:55:13.918Z,62.50
2019-02-26T12:57:43.197Z,62.40
2019-02-26T13:00:16.569Z,61.80
2019-02-26T13:02:45.747Z,61.00
2019-02-26T13:05:18.867Z,61.80
2019-02-26T13:07:45.150Z,61.30
2019-02-26T13:10:16.500Z,61.30
2019-02-26T13:12:47.224Z,59.80
2019-02-26T13:15:19.267Z,60.90
2019-02-26T13:17:48.871Z,61.30
2019-02-26T13:20:18.583Z,61.40
2019-02-26T13:22:46.859Z,60.90
2019-02-26T13:25:17.970Z,60.70
2019-02-26T13:27:48.094Z,59.50
2019-02-26T13:30:20.432Z,60.10
2019-02-26T13:33:00.414Z,60.10
2019-02-26T13:35:18.869Z,59.90
2019-02-26T13:37:47.615Z,60.70
2019-02-26T13:40:16.905Z,60.60
2019-02-26T13:42:49.916Z,61.50
2019-02-26T13:45:17.103Z,61.80
2019-02-26T13:47:45.470Z,61.50
2019-02-26T13:50:18.058Z,62.10
2019-02-26T13:52:46.223Z,61.90
2019-02-26T13:55:14.528Z,61.50
2019-02-26T13:57:42.678Z,60.80
2019-02-26T14:00:12.199Z,60.30
2019-02-26T14:02:40.571Z,61.30
2019-02-26T14:05:09.934Z,59.90
2019-02-26T14:07:38.094Z,60.40
2019-02-26T14:10:08.154Z,60.40
2019-02-26T14:12:36.411Z,60.30
2019-02-26T14:15:04.917Z,59.00
2019-02-26T14:17:33.083Z,59.80
2019-02-26T14:20:01.719Z,59.30
2019-02-26T14:22:30.319Z,59.30
2019-02-26T14:24:58.431Z,59.40
2019-02-26T14:27:26.607Z,58.20
2019-02-26T14:29:54.814Z,58.40
2019-02-26T14:32:23.030Z,58.00
2019-02-26T14:34:51.618Z,58.10
2019-02-26T14:37:19.779Z,58.70
2019-02-26T14:39:47.889Z,58.20
2019-02-26T14:42:16.038Z,58.10
2019-02-26T14:44:44.148Z,58.20
2019-02-26T14:47:12.306Z,58.10
2019-02-26T14:49:40.441Z,58.80
2019-02-26T14:52:08.702Z,58.40
2019-02-26T14:54:37.151Z,59.30
2019-02-26T14:57:05.305Z,60.30
2019-02-26T14:59:33.731Z,60.30
2019-02-26T15:02:01.896Z,59.50
2019-02-26T15:04:30.119Z,60.40
2019-02-26T15:06:58.359Z,61.20
2019-02-26T15:09:26.532Z,61.60
2019-02-26T15:11:54.739Z,61.60
2019-02-26T15:14:22.888Z,62.00
2019-02-26T15:16:50.995Z,62.10
2019-02-26T15:19:19.745Z,62.30
2019-02-26T15:21:48.059Z,61.80
2019-02-26T15:24:16.736Z,61.80
2019-02-26T15:26:44.954Z,60.90
2019-02-26T15:29:13.106Z,61.70
2019-02-26T15:31:41.271Z,62.00
2019-02-26T15:34:09.594Z,61.50
2019-02-26T15:36:38.692Z,61.30
2019-02-26T15:39:07.339Z,61.60
2019-02-26T15:41:35.439Z,62.00
2019-02-26T15:44:03.808Z,61.80
2019-02-26T15:46:32.329Z,61.80
2019-02-26T15:49:00.624Z,61.00
2019-02-26T15:51:28.713Z,60.90
2019-02-26T15:53:56.875Z,60.60
2019-02-26T15:56:25.078Z,60.50
2019-02-26T15:58:53.227Z,61.10
2019-02-26T16:01:21.980Z,60.70
2019-02-26T16:03:50.178Z,61.50
2019-02-26T16:06:18.450Z,60.60
2019-02-26T16:08:46.715Z,60.80
2019-02-26T16:11:14.828Z,61.00
2019-02-26T16:13:43.187Z,61.20
2019-02-26T16:16:11.407Z,61.60
2019-02-26T16:18:39.774Z,62.20
2019-02-26T16:21:07.883Z,61.90
2019-02-26T16:23:36.036Z,62.20
2019-02-26T16:26:05.645Z,62.40
2019-02-26T16:28:34.097Z,62.70
2019-02-26T16:31:02.255Z,63.40
2019-02-26T16:33:30.407Z,64.20
2019-02-26T16:35:58.510Z,64.80
2019-02-26T16:38:26.691Z,65.60
2019-02-26T16:40:54.901Z,65.90
2019-02-26T16:43:23.071Z,66.10
2019-02-26T16:45:52.182Z,67.40
2019-02-26T16:48:21.567Z,67.80
2019-02-26T16:50:50.810Z,68.40
2019-02-26T16:53:19.440Z,68.90
2019-02-26T16:55:48.980Z,69.30
2019-02-26T16:58:17.877Z,70.00
2019-02-26T17:00:48.723Z,70.20
2019-02-26T17:03:17.011Z,70.90
2019-02-26T17:05:47.449Z,71.60
2019-02-26T17:08:15.222Z,72.40
2019-02-26T17:10:43.427Z,73.10
2019-02-26T17:13:11.607Z,74.20
2019-02-26T17:15:39.815Z,74.60
2019-02-26T17:18:09.834Z,75.90
2019-02-26T17:20:38.654Z,77.90
2019-02-26T17:23:07.388Z,78.20
2019-02-26T17:25:35.602Z,78.80
2019-02-26T17:28:03.875Z,79.20
2019-02-26T17:30:33.498Z,80.20
2019-02-26T17:33:01.743Z,80.30
2019-02-26T17:35:30.185Z,81.40
2019-02-26T17:37:58.485Z,81.90
2019-02-26T17:40:27.020Z,82.30
2019-02-26T17:42:55.383Z,82.80
2019-02-26T17:45:23.745Z,83.40
2019-02-26T17:47:52.129Z,83.80
2019-02-26T17:50:22.967Z,84.00
2019-02-26T17:52:51.332Z,84.70
2019-02-26T17:55:19.966Z,85.70
2019-02-26T17:57:48.346Z,87.00
2019-02-26T18:00:18.746Z,87.50
2019-02-26T18:02:47.037Z,88.00
2019-02-26T18:05:15.282Z,88.60
2019-02-26T18:07:44.258Z,89.80
2019-02-26T18:10:14.195Z,90.50
2019-02-26T18:12:43.316Z,91.10
2019-02-26T18:15:16.548Z,91.30
2019-02-26T18:17:42.488Z,91.40
2019-02-26T18:20:13.322Z,91.70
2019-02-26T18:22:41.516Z,92.10
2019-02-26T18:25:10.794Z,92.40
2019-02-26T18:27:39.084Z,92.60
2019-02-26T18:30:09.824Z,93.10
2019-02-26T18:32:38.466Z,93.20
2019-02-26T18:35:07.188Z,93.30
2019-02-26T18:37:35.462Z,93.20
2019-02-26T18:40:04.260Z,93.70
2019-02-26T18:42:32.542Z,93.80
2019-02-26T18:45:00.741Z,94.00
2019-02-26T18:47:29.053Z,94.20
2019-02-26T18:49:57.170Z,94.50
2019-02-26T18:52:25.726Z,94.90
2019-02-26T18:54:54.267Z,95.00
2019-02-26T18:57:26.559Z,95.40
2019-02-26T18:59:55.028Z,95.80
2019-02-26T19:02:23.193Z,96.40
2019-02-26T19:04:51.323Z,97.10
2019-02-26T19:07:19.566Z,97.60
2019-02-26T19:09:49.782Z,97.80
2019-02-26T19:12:18.700Z,98.20
2019-02-26T19:14:46.874Z,98.40
2019-02-26T19:17:15.027Z,99.10
2019-02-26T19:19:43.600Z,99.80
2019-02-26T19:22:11.747Z,99.90
2019-02-26T19:24:40.505Z,99.90
2019-02-26T19:27:10.880Z,99.90
2019-02-26T19:29:41.140Z,99.90
2019-02-26T19:32:09.309Z,99.90
2019-02-26T19:34:37.526Z,99.90
2019-02-26T19:37:05.658Z,99.90
2019-02-26T19:39:35.536Z,99.90
2019-02-26T19:42:03.859Z,99.90
2019-02-26T19:44:35.674Z,99.90
2019-02-26T19:47:01.939Z,99.90
2019-02-26T19:49:30.086Z,99.90
2019-02-26T19:51:58.190Z,99.90
2019-02-26T19:54:26.442Z,99.90
2019-02-26T19:56:57.084Z,99.90
2019-02-26T19:59:26.874Z,99.90
2019-02-26T20:01:56.654Z,99.90
2019-02-26T20:04:25.284Z,99.90
2019-02-26T20:06:53.506Z,99.90
2019-02-26T20:09:21.859Z,99.90
2019-02-26T20:11:50.065Z,99.90
2019-02-26T20:14:21.483Z,99.90
2019-02-26T20:16:48.207Z,99.90
2019-02-26T20:19:16.362Z,99.90
2019-02-26T20:21:44.455Z,99.90
2019-02-26T20:24:16.253Z,99.90
2019-02-26T20:26:44.211Z,99.90
2019-02-26T20:29:15.003Z,99.90
2019-02-26T20:31:43.094Z,99.90
2019-02-26T20:34:11.342Z,99.90
2019-02-26T20:36:39.559Z,99.90
2019-02-26T20:39:08.448Z,99.90
2019-02-26T20:41:38.184Z,99.90
2019-02-26T20:44:07.842Z,99.90
2019-02-26T20:46:36.709Z,99.90
2019-02-26T20:49:04.970Z,99.90
2019-02-26T20:51:33.085Z,99.90
2019-02-26T20:54:01.246Z,99.90
2019-02-26T20:56:30.992Z,99.90
2019-02-26T20:58:59.756Z,99.90
2019-02-26T21:01:29.709Z,99.90
2019-02-26T21:03:57.920Z,99.90
2019-02-26T21:06:26.025Z,99.90
2019-02-26T21:08:54.118Z,99.90
2019-02-26T21:11:23.331Z,99.90
2019-02-26T21:13:51.655Z,99.90
2019-02-26T21:16:20.929Z,99.90
2019-02-26T21:18:49.646Z,99.90
2019-02-26T21:21:18.347Z,99.90
2019-02-26T21:23:46.450Z,99.90
2019-02-26T21:26:15.105Z,99.90
2019-02-26T21:28:43.546Z,99.90
2019-02-26T21:31:11.711Z,99.90
2019-02-26T21:33:39.873Z,99.90
2019-02-26T21:36:08.061Z,99.90
2019-02-26T21:38:38.616Z,99.90
2019-02-26T21:41:06.238Z,99.90
2019-02-26T21:43:35.474Z,99.90
2019-02-26T21:46:04.027Z,99.90
2019-02-26T21:48:32.156Z,99.90
2019-02-26T21:51:00.305Z,99.90
2019-02-26T21:53:28.426Z,99.90
2019-02-26T21:55:57.068Z,99.90
2019-02-26T21:58:26.856Z,99.90
2019-02-26T22:00:55.290Z,99.90
2019-02-26T22:03:24.832Z,99.90
2019-02-26T22:05:53.357Z,99.90
2019-02-26T22:08:24.535Z,99.90
2019-02-26T22:10:51.446Z,99.90
2019-02-26T22:13:20.027Z,99.90
2019-02-26T22:15:48.181Z,99.90
2019-02-26T22:18:16.302Z,99.90
2019-02-26T22:20:45.481Z,99.90
2019-02-26T22:23:14.946Z,99.90
2019-02-26T22:25:43.214Z,99.90
2019-02-26T22:28:11.314Z,99.90
2019-02-26T22:30:39.461Z,99.90
2019-02-26T22:33:08.008Z,99.90
2019-02-26T22:35:36.750Z,99.90
2019-02-26T22:38:04.863Z,99.90
2019-02-26T22:40:34.245Z,99.90
2019-02-26T22:43:02.975Z,99.90
2019-02-26T22:45:31.618Z,99.90
2019-02-26T22:47:59.728Z,99.90
2019-02-26T22:50:27.996Z,99.90
2019-02-26T22:52:56.209Z,99.90
2019-02-26T22:55:24.384Z,99.90
2019-02-26T22:57:52.933Z,99.90
2019-02-26T23:00:52.446Z,99.90
2019-02-26T23:03:20.666Z,99.90
2019-02-26T23:05:48.990Z,99.90
2019-02-26T23:08:17.641Z,99.90
2019-02-26T23:10:45.859Z,99.90
2019-02-26T23:13:14.915Z,99.90
2019-02-26T23:15:45.830Z,99.90
2019-02-26T23:18:13.682Z,99.90
2019-02-26T23:20:43.305Z,99.90
2019-02-26T23:23:11.757Z,99.90
2019-02-26T23:25:40.055Z,99.90
2019-02-26T23:28:08.311Z,99.90
2019-02-26T23:30:36.478Z,99.90
2019-02-26T23:33:07.157Z,99.90
2019-02-26T23:35:35.891Z,99.90
2019-02-26T23:38:07.986Z,99.90
2019-02-26T23:40:34.597Z,99.90
2019-02-26T23:43:02.954Z,99.90
2019-02-26T23:45:31.644Z,99.90
2019-02-26T23:48:00.010Z,99.90
2019-02-26T23:50:28.302Z,99.90
2019-02-26T23:53:00.905Z,99.90
2019-02-26T23:55:27.339Z,99.90
2019-02-26T23:57:57.873Z,99.90
